sensor_id;sensor_type;location;lat;lon;timestamp;temperature;humidity
4647;DHT22;2336;47.822;7.564;2023-08-06T00:00:21;17.30;99.90
4647;DHT22;2336;47.822;7.564;2023-08-06T00:02:48;17.40;99.90
4647;DHT22;2336;47.822;7.564;2023-08-06T00:05:15;17.40;99.90
4647;DHT22;2336;47.822;7.564;2023-08-06T00:07:43;17.30;99.90
4647;DHT22;2336;47.822;7.564;2023-08-06T00:10:11;17.30;99.90
4647;DHT22;2336;47.822;7.564;2023-08-06T00:12:38;17.30;99.90
4647;DHT22;2336;47.822;7.564;2023-08-06T00:15:05;17.20;99.90
4647;DHT22;2336;47.822;7.564;2023-08-06T00:17:33;17.10;99.90
4647;DHT22;2336;47.822;7.564;2023-08-06T00:20:00;17.10;99.90
4647;DHT22;2336;47.822;7.564;2023-08-06T00:22:30;17.10;99.90
4647;DHT22;2336;47.822;7.564;2023-08-06T00:24:57;17.00;99.90
4647;DHT22;2336;47.822;7.564;2023-08-06T00:27:25;17.00;99.90
4647;DHT22;2336;47.822;7.564;2023-08-06T00:29:52;16.90;99.90
4647;DHT22;2336;47.822;7.564;2023-08-06T00:32:19;16.90;99.90
4647;DHT22;2336;47.822;7.564;2023-08-06T00:34:45;16.90;99.90
4647;DHT22;2336;47.822;7.564;2023-08-06T00:37:14;16.90;99.90
4647;DHT22;2336;47.822;7.564;2023-08-06T00:39:41;16.80;99.90
4647;DHT22;2336;47.822;7.564;2023-08-06T00:42:08;16.80;99.90
4647;DHT22;2336;47.822;7.564;2023-08-06T00:44:36;16.80;99.90
4647;DHT22;2336;47.822;7.564;2023-08-06T00:47:03;16.70;99.90
4647;DHT22;2336;47.822;7.564;2023-08-06T00:49:30;16.70;99.90
4647;DHT22;2336;47.822;7.564;2023-08-06T00:51:58;16.70;99.90
4647;DHT22;2336;47.822;7.564;2023-08-06T00:54:26;16.70;99.90
4647;DHT22;2336;47.822;7.564;2023-08-06T00:56:53;16.70;99.90
4647;DHT22;2336;47.822;7.564;2023-08-06T00:59:20;16.70;99.90
4647;DHT22;2336;47.822;7.564;2023-08-06T01:01:48;16.70;99.90
4647;DHT22;2336;47.822;7.564;2023-08-06T01:04:16;16.70;99.90
4647;DHT22;2336;47.822;7.564;2023-08-06T01:06:46;16.80;99.90
4647;DHT22;2336;47.822;7.564;2023-08-06T01:09:24;16.80;99.90
4647;DHT22;2336;47.822;7.564;2023-08-06T01:11:58;16.80;99.90
4647;DHT22;2336;47.822;7.564;2023-08-06T01:14:30;16.80;99.90
4647;DHT22;2336;47.822;7.564;2023-08-06T01:16:58;16.80;99.90
4647;DHT22;2336;47.822;7.564;2023-08-06T01:19:25;16.90;99.90
4647;DHT22;2336;47.822;7.564;2023-08-06T01:21:53;16.90;99.90
4647;DHT22;2336;47.822;7.564;2023-08-06T01:24:20;17.00;99.90
4647;DHT22;2336;47.822;7.564;2023-08-06T01:26:53;17.00;99.90
4647;DHT22;2336;47.822;7.564;2023-08-06T01:29:25;17.10;99.90
4647;DHT22;2336;47.822;7.564;2023-08-06T01:31:55;17.20;99.90
4647;DHT22;2336;47.822;7.564;2023-08-06T01:34:24;17.20;99.90
4647;DHT22;2336;47.822;7.564;2023-08-06T01:36:53;17.20;99.90
4647;DHT22;2336;47.822;7.564;2023-08-06T01:39:20;17.20;99.90
4647;DHT22;2336;47.822;7.564;2023-08-06T01:41:47;17.20;99.90
4647;DHT22;2336;47.822;7.564;2023-08-06T01:44:14;17.20;99.90
4647;DHT22;2336;47.822;7.564;2023-08-06T01:46:40;17.30;99.90
4647;DHT22;2336;47.822;7.564;2023-08-06T01:49:07;17.30;99.90
4647;DHT22;2336;47.822;7.564;2023-08-06T01:51:34;17.40;99.90
4647;DHT22;2336;47.822;7.564;2023-08-06T01:54:02;17.40;99.90
4647;DHT22;2336;47.822;7.564;2023-08-06T01:56:29;17.50;99.90
4647;DHT22;2336;47.822;7.564;2023-08-06T01:58:55;17.50;99.90
4647;DHT22;2336;47.822;7.564;2023-08-06T02:01:22;17.50;99.90
4647;DHT22;2336;47.822;7.564;2023-08-06T02:03:49;17.40;99.90
4647;DHT22;2336;47.822;7.564;2023-08-06T02:06:15;17.20;99.90
4647;DHT22;2336;47.822;7.564;2023-08-06T02:08:42;16.80;99.90
4647;DHT22;2336;47.822;7.564;2023-08-06T02:11:10;16.50;99.90
4647;DHT22;2336;47.822;7.564;2023-08-06T02:13:37;16.20;99.90
4647;DHT22;2336;47.822;7.564;2023-08-06T02:16:06;15.80;99.90
4647;DHT22;2336;47.822;7.564;2023-08-06T02:18:33;15.00;99.90
4647;DHT22;2336;47.822;7.564;2023-08-06T02:21:00;14.30;99.90
4647;DHT22;2336;47.822;7.564;2023-08-06T02:23:27;14.30;99.90
4647;DHT22;2336;47.822;7.564;2023-08-06T02:25:58;14.30;99.90
4647;DHT22;2336;47.822;7.564;2023-08-06T02:28:26;14.20;99.90
4647;DHT22;2336;47.822;7.564;2023-08-06T02:30:53;14.20;99.90
4647;DHT22;2336;47.822;7.564;2023-08-06T02:33:20;14.20;99.90
4647;DHT22;2336;47.822;7.564;2023-08-06T02:35:47;14.20;99.90
4647;DHT22;2336;47.822;7.564;2023-08-06T02:38:13;14.10;99.90
4647;DHT22;2336;47.822;7.564;2023-08-06T02:40:43;14.20;99.90
4647;DHT22;2336;47.822;7.564;2023-08-06T02:43:10;14.10;99.90
4647;DHT22;2336;47.822;7.564;2023-08-06T02:45:38;14.10;99.90
4647;DHT22;2336;47.822;7.564;2023-08-06T02:48:05;13.90;99.90
4647;DHT22;2336;47.822;7.564;2023-08-06T02:50:37;14.00;99.90
4647;DHT22;2336;47.822;7.564;2023-08-06T02:53:04;13.90;99.90
4647;DHT22;2336;47.822;7.564;2023-08-06T02:55:31;13.90;99.90
4647;DHT22;2336;47.822;7.564;2023-08-06T02:57:59;13.90;99.90
4647;DHT22;2336;47.822;7.564;2023-08-06T03:00:25;13.90;99.90
4647;DHT22;2336;47.822;7.564;2023-08-06T03:02:54;13.90;99.90
4647;DHT22;2336;47.822;7.564;2023-08-06T03:05:20;13.80;99.90
4647;DHT22;2336;47.822;7.564;2023-08-06T03:07:46;13.70;99.90
4647;DHT22;2336;47.822;7.564;2023-08-06T03:10:13;13.50;99.90
4647;DHT22;2336;47.822;7.564;2023-08-06T03:12:39;13.50;99.90
4647;DHT22;2336;47.822;7.564;2023-08-06T03:15:07;13.50;99.90
4647;DHT22;2336;47.822;7.564;2023-08-06T03:17:34;13.60;99.90
4647;DHT22;2336;47.822;7.564;2023-08-06T03:20:02;13.50;99.90
4647;DHT22;2336;47.822;7.564;2023-08-06T03:22:29;13.30;99.90
4647;DHT22;2336;47.822;7.564;2023-08-06T03:24:56;13.40;99.90
4647;DHT22;2336;47.822;7.564;2023-08-06T03:27:23;13.40;99.90
4647;DHT22;2336;47.822;7.564;2023-08-06T03:29:49;13.30;99.90
4647;DHT22;2336;47.822;7.564;2023-08-06T03:32:16;13.30;99.90
4647;DHT22;2336;47.822;7.564;2023-08-06T03:34:43;13.20;99.90
4647;DHT22;2336;47.822;7.564;2023-08-06T03:37:11;13.20;99.90
4647;DHT22;2336;47.822;7.564;2023-08-06T03:39:38;13.20;99.90
4647;DHT22;2336;47.822;7.564;2023-08-06T03:42:05;13.10;99.90
4647;DHT22;2336;47.822;7.564;2023-08-06T03:44:32;13.10;99.90
4647;DHT22;2336;47.822;7.564;2023-08-06T03:46:58;13.10;99.90
4647;DHT22;2336;47.822;7.564;2023-08-06T03:49:25;13.10;99.90
4647;DHT22;2336;47.822;7.564;2023-08-06T03:51:52;13.10;99.90
4647;DHT22;2336;47.822;7.564;2023-08-06T03:54:20;13.10;99.90
4647;DHT22;2336;47.822;7.564;2023-08-06T03:56:46;13.10;99.90
4647;DHT22;2336;47.822;7.564;2023-08-06T03:59:13;13.10;99.90
4647;DHT22;2336;47.822;7.564;2023-08-06T04:01:40;13.00;99.90
4647;DHT22;2336;47.822;7.564;2023-08-06T04:04:06;13.00;99.90
4647;DHT22;2336;47.822;7.564;2023-08-06T04:06:33;13.00;99.90
4647;DHT22;2336;47.822;7.564;2023-08-06T04:09:00;13.00;99.90
4647;DHT22;2336;47.822;7.564;2023-08-06T04:11:28;13.00;99.90
4647;DHT22;2336;47.822;7.564;2023-08-06T04:13:55;13.00;99.90
4647;DHT22;2336;47.822;7.564;2023-08-06T04:16:21;12.90;99.90
4647;DHT22;2336;47.822;7.564;2023-08-06T04:18:48;12.90;99.90
4647;DHT22;2336;47.822;7.564;2023-08-06T04:21:15;12.80;99.90
4647;DHT22;2336;47.822;7.564;2023-08-06T04:23:41;12.80;99.90
4647;DHT22;2336;47.822;7.564;2023-08-06T04:26:08;12.80;99.90
4647;DHT22;2336;47.822;7.564;2023-08-06T04:28:36;12.80;99.90
4647;DHT22;2336;47.822;7.564;2023-08-06T04:31:03;12.80;99.90
4647;DHT22;2336;47.822;7.564;2023-08-06T04:33:29;12.80;99.90
4647;DHT22;2336;47.822;7.564;2023-08-06T04:35:56;12.80;99.90
4647;DHT22;2336;47.822;7.564;2023-08-06T04:38:24;12.90;99.90
4647;DHT22;2336;47.822;7.564;2023-08-06T04:40:51;12.90;99.90
4647;DHT22;2336;47.822;7.564;2023-08-06T04:43:18;12.80;99.90
4647;DHT22;2336;47.822;7.564;2023-08-06T04:45:50;12.80;99.90
4647;DHT22;2336;47.822;7.564;2023-08-06T04:48:18;12.80;99.90
4647;DHT22;2336;47.822;7.564;2023-08-06T04:50:46;12.80;99.90
4647;DHT22;2336;47.822;7.564;2023-08-06T04:53:13;12.80;99.90
4647;DHT22;2336;47.822;7.564;2023-08-06T04:55:40;12.80;99.90
4647;DHT22;2336;47.822;7.564;2023-08-06T04:58:08;12.80;99.90
4647;DHT22;2336;47.822;7.564;2023-08-06T05:00:35;12.80;99.90
4647;DHT22;2336;47.822;7.564;2023-08-06T05:03:03;12.80;99.90
4647;DHT22;2336;47.822;7.564;2023-08-06T05:05:30;12.90;99.90
4647;DHT22;2336;47.822;7.564;2023-08-06T05:07:57;12.90;99.90
4647;DHT22;2336;47.822;7.564;2023-08-06T05:10:24;13.00;99.90
4647;DHT22;2336;47.822;7.564;2023-08-06T05:12:51;12.90;99.90
4647;DHT22;2336;47.822;7.564;2023-08-06T05:15:18;12.90;99.90
4647;DHT22;2336;47.822;7.564;2023-08-06T05:17:44;12.90;99.90
4647;DHT22;2336;47.822;7.564;2023-08-06T05:20:13;12.80;99.90
4647;DHT22;2336;47.822;7.564;2023-08-06T05:22:40;12.80;99.90
4647;DHT22;2336;47.822;7.564;2023-08-06T05:25:07;12.80;99.90
4647;DHT22;2336;47.822;7.564;2023-08-06T05:27:34;12.80;99.90
4647;DHT22;2336;47.822;7.564;2023-08-06T05:30:00;12.80;99.90
4647;DHT22;2336;47.822;7.564;2023-08-06T05:32:27;12.80;99.90
4647;DHT22;2336;47.822;7.564;2023-08-06T05:34:54;12.90;99.90
4647;DHT22;2336;47.822;7.564;2023-08-06T05:37:22;12.90;99.90
4647;DHT22;2336;47.822;7.564;2023-08-06T05:39:48;13.00;99.90
4647;DHT22;2336;47.822;7.564;2023-08-06T05:42:15;13.00;99.90
4647;DHT22;2336;47.822;7.564;2023-08-06T05:44:42;13.00;99.90
4647;DHT22;2336;47.822;7.564;2023-08-06T05:47:09;13.10;99.90
4647;DHT22;2336;47.822;7.564;2023-08-06T05:49:36;13.10;99.90
4647;DHT22;2336;47.822;7.564;2023-08-06T05:52:03;13.20;99.90
4647;DHT22;2336;47.822;7.564;2023-08-06T05:54:32;13.20;99.90
4647;DHT22;2336;47.822;7.564;2023-08-06T05:56:59;13.20;99.90
4647;DHT22;2336;47.822;7.564;2023-08-06T05:59:26;13.30;99.90
4647;DHT22;2336;47.822;7.564;2023-08-06T06:01:53;13.40;99.90
4647;DHT22;2336;47.822;7.564;2023-08-06T06:04:20;13.40;99.90
4647;DHT22;2336;47.822;7.564;2023-08-06T06:06:46;13.40;99.90
4647;DHT22;2336;47.822;7.564;2023-08-06T06:09:13;13.40;99.90
4647;DHT22;2336;47.822;7.564;2023-08-06T06:11:41;13.40;99.90
4647;DHT22;2336;47.822;7.564;2023-08-06T06:14:08;13.50;99.90
4647;DHT22;2336;47.822;7.564;2023-08-06T06:16:34;13.50;99.90
4647;DHT22;2336;47.822;7.564;2023-08-06T06:19:01;13.60;99.90
4647;DHT22;2336;47.822;7.564;2023-08-06T06:21:28;13.60;99.90
4647;DHT22;2336;47.822;7.564;2023-08-06T06:23:54;13.60;99.90
4647;DHT22;2336;47.822;7.564;2023-08-06T06:26:22;13.60;99.90
4647;DHT22;2336;47.822;7.564;2023-08-06T06:28:50;13.60;99.90
4647;DHT22;2336;47.822;7.564;2023-08-06T06:31:17;13.70;99.90
4647;DHT22;2336;47.822;7.564;2023-08-06T06:33:43;13.70;99.90
4647;DHT22;2336;47.822;7.564;2023-08-06T06:36:10;13.70;99.90
4647;DHT22;2336;47.822;7.564;2023-08-06T06:38:37;13.70;99.90
4647;DHT22;2336;47.822;7.564;2023-08-06T06:41:04;13.70;99.90
4647;DHT22;2336;47.822;7.564;2023-08-06T06:43:30;13.70;99.90
4647;DHT22;2336;47.822;7.564;2023-08-06T06:45:59;13.70;99.90
4647;DHT22;2336;47.822;7.564;2023-08-06T06:48:27;13.70;99.90
4647;DHT22;2336;47.822;7.564;2023-08-06T06:50:54;13.80;99.90
4647;DHT22;2336;47.822;7.564;2023-08-06T06:53:21;13.80;99.90
4647;DHT22;2336;47.822;7.564;2023-08-06T06:55:52;13.90;99.90
4647;DHT22;2336;47.822;7.564;2023-08-06T06:58:19;13.90;99.90
4647;DHT22;2336;47.822;7.564;2023-08-06T07:00:46;14.00;99.90
4647;DHT22;2336;47.822;7.564;2023-08-06T07:03:14;14.00;99.90
4647;DHT22;2336;47.822;7.564;2023-08-06T07:05:43;14.00;99.90
4647;DHT22;2336;47.822;7.564;2023-08-06T07:08:10;14.10;99.90
4647;DHT22;2336;47.822;7.564;2023-08-06T07:10:36;14.10;99.90
4647;DHT22;2336;47.822;7.564;2023-08-06T07:13:03;14.10;99.90
4647;DHT22;2336;47.822;7.564;2023-08-06T07:15:30;14.20;99.90
4647;DHT22;2336;47.822;7.564;2023-08-06T07:17:56;14.20;99.90
4647;DHT22;2336;47.822;7.564;2023-08-06T07:20:24;14.20;99.90
4647;DHT22;2336;47.822;7.564;2023-08-06T07:22:51;14.30;99.90
4647;DHT22;2336;47.822;7.564;2023-08-06T07:25:18;14.40;99.90
4647;DHT22;2336;47.822;7.564;2023-08-06T07:27:45;14.50;99.90
4647;DHT22;2336;47.822;7.564;2023-08-06T07:30:11;14.60;99.90
4647;DHT22;2336;47.822;7.564;2023-08-06T07:32:38;14.60;99.90
4647;DHT22;2336;47.822;7.564;2023-08-06T07:35:06;14.60;99.90
4647;DHT22;2336;47.822;7.564;2023-08-06T07:37:36;14.60;99.90
4647;DHT22;2336;47.822;7.564;2023-08-06T07:40:03;14.70;99.90
4647;DHT22;2336;47.822;7.564;2023-08-06T07:42:30;14.70;99.90
4647;DHT22;2336;47.822;7.564;2023-08-06T07:44:58;14.80;99.90
4647;DHT22;2336;47.822;7.564;2023-08-06T07:47:25;14.80;99.90
4647;DHT22;2336;47.822;7.564;2023-08-06T07:49:52;14.80;99.90
4647;DHT22;2336;47.822;7.564;2023-08-06T07:52:18;14.80;99.90
4647;DHT22;2336;47.822;7.564;2023-08-06T07:54:47;14.80;99.90
4647;DHT22;2336;47.822;7.564;2023-08-06T07:57:13;14.80;99.90
4647;DHT22;2336;47.822;7.564;2023-08-06T07:59:40;14.80;99.90
4647;DHT22;2336;47.822;7.564;2023-08-06T08:02:07;14.90;99.90
4647;DHT22;2336;47.822;7.564;2023-08-06T08:04:34;14.90;99.90
4647;DHT22;2336;47.822;7.564;2023-08-06T08:07:01;14.90;99.90
4647;DHT22;2336;47.822;7.564;2023-08-06T08:09:27;14.90;99.90
4647;DHT22;2336;47.822;7.564;2023-08-06T08:11:56;14.90;99.90
4647;DHT22;2336;47.822;7.564;2023-08-06T08:14:23;14.90;99.90
4647;DHT22;2336;47.822;7.564;2023-08-06T08:16:50;15.00;99.90
4647;DHT22;2336;47.822;7.564;2023-08-06T08:19:16;15.00;99.90
4647;DHT22;2336;47.822;7.564;2023-08-06T08:21:43;15.00;99.90
4647;DHT22;2336;47.822;7.564;2023-08-06T08:24:10;15.00;99.90
4647;DHT22;2336;47.822;7.564;2023-08-06T08:26:36;15.00;99.90
4647;DHT22;2336;47.822;7.564;2023-08-06T08:29:04;15.00;99.90
4647;DHT22;2336;47.822;7.564;2023-08-06T08:31:31;14.90;99.90
4647;DHT22;2336;47.822;7.564;2023-08-06T08:34:04;14.90;99.90
4647;DHT22;2336;47.822;7.564;2023-08-06T08:36:31;14.80;99.90
4647;DHT22;2336;47.822;7.564;2023-08-06T08:38:57;14.80;99.90
4647;DHT22;2336;47.822;7.564;2023-08-06T08:41:24;14.80;99.90
4647;DHT22;2336;47.822;7.564;2023-08-06T08:43:51;14.90;99.90
4647;DHT22;2336;47.822;7.564;2023-08-06T08:46:20;14.90;99.90
4647;DHT22;2336;47.822;7.564;2023-08-06T08:48:47;14.90;99.90
4647;DHT22;2336;47.822;7.564;2023-08-06T08:51:15;15.00;99.90
4647;DHT22;2336;47.822;7.564;2023-08-06T08:53:43;15.00;99.90
4647;DHT22;2336;47.822;7.564;2023-08-06T08:56:11;15.00;99.90
4647;DHT22;2336;47.822;7.564;2023-08-06T08:58:38;15.00;99.90
4647;DHT22;2336;47.822;7.564;2023-08-06T09:01:07;15.00;99.90
4647;DHT22;2336;47.822;7.564;2023-08-06T09:03:36;15.10;99.90
4647;DHT22;2336;47.822;7.564;2023-08-06T09:06:04;15.10;99.90
4647;DHT22;2336;47.822;7.564;2023-08-06T09:08:36;15.10;99.90
4647;DHT22;2336;47.822;7.564;2023-08-06T09:11:04;15.10;99.90
4647;DHT22;2336;47.822;7.564;2023-08-06T09:13:31;15.10;99.90
4647;DHT22;2336;47.822;7.564;2023-08-06T09:15:58;15.20;99.90
4647;DHT22;2336;47.822;7.564;2023-08-06T09:18:25;15.10;99.90
4647;DHT22;2336;47.822;7.564;2023-08-06T09:20:54;15.20;99.90
4647;DHT22;2336;47.822;7.564;2023-08-06T09:23:27;15.30;99.90
4647;DHT22;2336;47.822;7.564;2023-08-06T09:25:55;15.30;99.90
4647;DHT22;2336;47.822;7.564;2023-08-06T09:28:21;15.40;99.90
4647;DHT22;2336;47.822;7.564;2023-08-06T09:30:50;15.50;99.90
4647;DHT22;2336;47.822;7.564;2023-08-06T09:33:18;15.50;99.90
4647;DHT22;2336;47.822;7.564;2023-08-06T09:35:46;15.70;99.90
4647;DHT22;2336;47.822;7.564;2023-08-06T09:38:14;15.70;99.90
4647;DHT22;2336;47.822;7.564;2023-08-06T09:40:41;15.80;99.90
4647;DHT22;2336;47.822;7.564;2023-08-06T09:43:08;15.90;99.90
4647;DHT22;2336;47.822;7.564;2023-08-06T09:45:35;15.90;99.90
4647;DHT22;2336;47.822;7.564;2023-08-06T09:48:04;15.90;99.90
4647;DHT22;2336;47.822;7.564;2023-08-06T09:50:31;16.00;99.90
4647;DHT22;2336;47.822;7.564;2023-08-06T09:52:59;15.80;99.90
4647;DHT22;2336;47.822;7.564;2023-08-06T09:55:27;15.80;99.90
4647;DHT22;2336;47.822;7.564;2023-08-06T09:57:54;15.80;99.90
4647;DHT22;2336;47.822;7.564;2023-08-06T10:00:22;16.00;99.90
4647;DHT22;2336;47.822;7.564;2023-08-06T10:02:49;16.10;99.90
4647;DHT22;2336;47.822;7.564;2023-08-06T10:05:19;16.30;99.90
4647;DHT22;2336;47.822;7.564;2023-08-06T10:07:46;16.20;99.90
4647;DHT22;2336;47.822;7.564;2023-08-06T10:10:14;16.20;99.90
4647;DHT22;2336;47.822;7.564;2023-08-06T10:12:46;16.30;99.90
4647;DHT22;2336;47.822;7.564;2023-08-06T10:15:17;16.30;99.90
4647;DHT22;2336;47.822;7.564;2023-08-06T10:17:49;16.30;99.90
4647;DHT22;2336;47.822;7.564;2023-08-06T10:20:18;16.30;99.90
4647;DHT22;2336;47.822;7.564;2023-08-06T10:22:46;16.40;99.90
4647;DHT22;2336;47.822;7.564;2023-08-06T10:25:25;16.50;99.90
4647;DHT22;2336;47.822;7.564;2023-08-06T10:27:54;16.60;99.90
4647;DHT22;2336;47.822;7.564;2023-08-06T10:30:22;16.60;99.90
4647;DHT22;2336;47.822;7.564;2023-08-06T10:32:50;16.60;99.90
4647;DHT22;2336;47.822;7.564;2023-08-06T10:35:31;16.60;99.90
4647;DHT22;2336;47.822;7.564;2023-08-06T10:37:59;16.80;99.90
4647;DHT22;2336;47.822;7.564;2023-08-06T10:40:26;16.80;99.90
4647;DHT22;2336;47.822;7.564;2023-08-06T10:42:58;17.00;99.90
4647;DHT22;2336;47.822;7.564;2023-08-06T10:45:24;17.00;99.90
4647;DHT22;2336;47.822;7.564;2023-08-06T10:47:54;17.00;99.90
4647;DHT22;2336;47.822;7.564;2023-08-06T10:50:21;17.00;99.90
4647;DHT22;2336;47.822;7.564;2023-08-06T10:52:48;17.00;99.90
4647;DHT22;2336;47.822;7.564;2023-08-06T10:55:22;16.80;99.90
4647;DHT22;2336;47.822;7.564;2023-08-06T10:57:49;16.90;99.90
4647;DHT22;2336;47.822;7.564;2023-08-06T11:00:17;16.90;99.90
4647;DHT22;2336;47.822;7.564;2023-08-06T11:02:44;16.90;99.90
4647;DHT22;2336;47.822;7.564;2023-08-06T11:05:13;16.80;99.90
4647;DHT22;2336;47.822;7.564;2023-08-06T11:07:39;16.90;99.90
4647;DHT22;2336;47.822;7.564;2023-08-06T11:10:07;16.90;99.90
4647;DHT22;2336;47.822;7.564;2023-08-06T11:12:35;17.00;99.90
4647;DHT22;2336;47.822;7.564;2023-08-06T11:15:03;17.00;99.90
4647;DHT22;2336;47.822;7.564;2023-08-06T11:17:33;17.10;99.90
4647;DHT22;2336;47.822;7.564;2023-08-06T11:20:01;17.00;99.90
4647;DHT22;2336;47.822;7.564;2023-08-06T11:22:28;16.90;99.90
4647;DHT22;2336;47.822;7.564;2023-08-06T11:24:55;16.80;99.90
4647;DHT22;2336;47.822;7.564;2023-08-06T11:27:22;17.00;99.90
4647;DHT22;2336;47.822;7.564;2023-08-06T11:29:48;17.00;99.90
4647;DHT22;2336;47.822;7.564;2023-08-06T11:32:15;17.00;99.90
4647;DHT22;2336;47.822;7.564;2023-08-06T11:34:43;17.00;99.90
4647;DHT22;2336;47.822;7.564;2023-08-06T11:37:10;17.00;99.90
4647;DHT22;2336;47.822;7.564;2023-08-06T11:39:38;17.00;99.90
4647;DHT22;2336;47.822;7.564;2023-08-06T11:42:06;17.00;99.90
4647;DHT22;2336;47.822;7.564;2023-08-06T11:44:35;16.90;99.90
4647;DHT22;2336;47.822;7.564;2023-08-06T11:47:03;16.90;99.90
4647;DHT22;2336;47.822;7.564;2023-08-06T11:49:38;16.90;99.90
4647;DHT22;2336;47.822;7.564;2023-08-06T11:52:15;16.90;99.90
4647;DHT22;2336;47.822;7.564;2023-08-06T11:54:44;16.80;99.90
4647;DHT22;2336;47.822;7.564;2023-08-06T11:57:11;16.90;99.90
4647;DHT22;2336;47.822;7.564;2023-08-06T11:59:38;17.00;99.90
4647;DHT22;2336;47.822;7.564;2023-08-06T12:02:08;17.10;99.90
4647;DHT22;2336;47.822;7.564;2023-08-06T12:05:03;17.20;99.90
4647;DHT22;2336;47.822;7.564;2023-08-06T12:07:33;17.40;99.90
4647;DHT22;2336;47.822;7.564;2023-08-06T12:10:03;17.40;99.90
4647;DHT22;2336;47.822;7.564;2023-08-06T12:12:30;17.50;99.90
4647;DHT22;2336;47.822;7.564;2023-08-06T12:14:57;17.50;99.90
4647;DHT22;2336;47.822;7.564;2023-08-06T12:17:24;17.40;99.90
4647;DHT22;2336;47.822;7.564;2023-08-06T12:19:51;17.20;99.90
4647;DHT22;2336;47.822;7.564;2023-08-06T12:22:17;17.20;99.90
4647;DHT22;2336;47.822;7.564;2023-08-06T12:24:46;17.20;99.90
4647;DHT22;2336;47.822;7.564;2023-08-06T12:27:13;17.20;99.90
4647;DHT22;2336;47.822;7.564;2023-08-06T12:29:46;17.20;99.90
4647;DHT22;2336;47.822;7.564;2023-08-06T12:32:14;17.20;99.90
4647;DHT22;2336;47.822;7.564;2023-08-06T12:34:41;17.20;99.90
4647;DHT22;2336;47.822;7.564;2023-08-06T12:37:09;17.20;99.90
4647;DHT22;2336;47.822;7.564;2023-08-06T12:39:36;17.20;99.90
4647;DHT22;2336;47.822;7.564;2023-08-06T12:42:05;17.20;99.90
4647;DHT22;2336;47.822;7.564;2023-08-06T12:44:32;17.20;99.90
4647;DHT22;2336;47.822;7.564;2023-08-06T12:46:59;17.20;99.90
4647;DHT22;2336;47.822;7.564;2023-08-06T12:49:26;17.30;99.90
4647;DHT22;2336;47.822;7.564;2023-08-06T12:51:54;17.60;99.90
4647;DHT22;2336;47.822;7.564;2023-08-06T12:54:22;18.10;99.90
4647;DHT22;2336;47.822;7.564;2023-08-06T12:56:48;18.30;99.90
4647;DHT22;2336;47.822;7.564;2023-08-06T12:59:17;18.30;99.90
4647;DHT22;2336;47.822;7.564;2023-08-06T13:01:44;18.30;99.90
4647;DHT22;2336;47.822;7.564;2023-08-06T13:04:12;18.40;99.90
4647;DHT22;2336;47.822;7.564;2023-08-06T13:06:39;18.40;99.90
4647;DHT22;2336;47.822;7.564;2023-08-06T13:09:06;18.20;99.90
4647;DHT22;2336;47.822;7.564;2023-08-06T13:11:34;18.10;99.90
4647;DHT22;2336;47.822;7.564;2023-08-06T13:14:05;18.30;99.90
4647;DHT22;2336;47.822;7.564;2023-08-06T13:16:34;18.20;99.90
4647;DHT22;2336;47.822;7.564;2023-08-06T13:19:01;18.40;99.90
4647;DHT22;2336;47.822;7.564;2023-08-06T13:21:32;18.50;99.90
4647;DHT22;2336;47.822;7.564;2023-08-06T13:23:59;18.60;99.90
4647;DHT22;2336;47.822;7.564;2023-08-06T13:26:27;18.60;99.90
4647;DHT22;2336;47.822;7.564;2023-08-06T13:28:53;18.60;99.90
4647;DHT22;2336;47.822;7.564;2023-08-06T13:31:20;18.40;99.90
4647;DHT22;2336;47.822;7.564;2023-08-06T13:33:48;18.30;99.90
4647;DHT22;2336;47.822;7.564;2023-08-06T13:36:15;18.20;99.90
4647;DHT22;2336;47.822;7.564;2023-08-06T13:38:42;17.90;99.90
4647;DHT22;2336;47.822;7.564;2023-08-06T13:41:09;17.60;99.90
4647;DHT22;2336;47.822;7.564;2023-08-06T13:43:35;17.60;99.90
4647;DHT22;2336;47.822;7.564;2023-08-06T13:46:02;17.70;99.90
4647;DHT22;2336;47.822;7.564;2023-08-06T13:48:29;17.80;99.90
4647;DHT22;2336;47.822;7.564;2023-08-06T13:50:57;17.70;99.90
4647;DHT22;2336;47.822;7.564;2023-08-06T13:53:24;17.70;99.90
4647;DHT22;2336;47.822;7.564;2023-08-06T13:55:55;17.80;99.90
4647;DHT22;2336;47.822;7.564;2023-08-06T13:58:22;17.80;99.90
4647;DHT22;2336;47.822;7.564;2023-08-06T14:00:48;17.80;99.90
4647;DHT22;2336;47.822;7.564;2023-08-06T14:03:18;17.90;99.90
4647;DHT22;2336;47.822;7.564;2023-08-06T14:05:45;17.90;99.90
4647;DHT22;2336;47.822;7.564;2023-08-06T14:08:13;17.70;99.90
4647;DHT22;2336;47.822;7.564;2023-08-06T14:10:40;17.50;99.90
4647;DHT22;2336;47.822;7.564;2023-08-06T14:13:06;17.30;99.90
4647;DHT22;2336;47.822;7.564;2023-08-06T14:15:33;16.90;99.90
4647;DHT22;2336;47.822;7.564;2023-08-06T14:18:00;16.70;99.90
4647;DHT22;2336;47.822;7.564;2023-08-06T14:20:26;16.50;99.90
4647;DHT22;2336;47.822;7.564;2023-08-06T14:22:53;16.40;99.90
4647;DHT22;2336;47.822;7.564;2023-08-06T14:25:21;16.60;99.90
4647;DHT22;2336;47.822;7.564;2023-08-06T14:27:48;16.90;99.90
4647;DHT22;2336;47.822;7.564;2023-08-06T14:30:15;17.20;99.90
4647;DHT22;2336;47.822;7.564;2023-08-06T14:32:42;17.70;99.90
4647;DHT22;2336;47.822;7.564;2023-08-06T14:35:08;18.20;99.90
4647;DHT22;2336;47.822;7.564;2023-08-06T14:37:35;18.30;99.90
4647;DHT22;2336;47.822;7.564;2023-08-06T14:40:02;18.50;99.90
4647;DHT22;2336;47.822;7.564;2023-08-06T14:42:30;18.70;99.90
4647;DHT22;2336;47.822;7.564;2023-08-06T14:44:57;18.70;99.90
4647;DHT22;2336;47.822;7.564;2023-08-06T14:47:24;18.60;99.90
4647;DHT22;2336;47.822;7.564;2023-08-06T14:49:50;18.50;99.90
4647;DHT22;2336;47.822;7.564;2023-08-06T14:52:17;18.60;99.90
4647;DHT22;2336;47.822;7.564;2023-08-06T14:54:44;18.60;99.90
4647;DHT22;2336;47.822;7.564;2023-08-06T14:57:10;18.30;99.90
4647;DHT22;2336;47.822;7.564;2023-08-06T14:59:40;18.40;99.90
4647;DHT22;2336;47.822;7.564;2023-08-06T15:02:06;18.70;99.90
4647;DHT22;2336;47.822;7.564;2023-08-06T15:04:33;18.90;99.90
4647;DHT22;2336;47.822;7.564;2023-08-06T15:07:00;18.90;99.90
4647;DHT22;2336;47.822;7.564;2023-08-06T15:09:26;18.70;99.90
4647;DHT22;2336;47.822;7.564;2023-08-06T15:11:53;18.60;99.90
4647;DHT22;2336;47.822;7.564;2023-08-06T15:14:21;18.60;99.90
4647;DHT22;2336;47.822;7.564;2023-08-06T15:16:49;18.70;99.90
4647;DHT22;2336;47.822;7.564;2023-08-06T15:19:16;18.50;99.90
4647;DHT22;2336;47.822;7.564;2023-08-06T15:21:43;18.50;99.90
4647;DHT22;2336;47.822;7.564;2023-08-06T15:24:10;18.60;99.90
4647;DHT22;2336;47.822;7.564;2023-08-06T15:26:37;18.60;99.90
4647;DHT22;2336;47.822;7.564;2023-08-06T15:29:03;18.30;99.90
4647;DHT22;2336;47.822;7.564;2023-08-06T15:31:36;18.20;99.90
4647;DHT22;2336;47.822;7.564;2023-08-06T15:34:05;18.40;99.90
4647;DHT22;2336;47.822;7.564;2023-08-06T15:36:32;18.40;99.90
4647;DHT22;2336;47.822;7.564;2023-08-06T15:38:58;18.30;99.90
4647;DHT22;2336;47.822;7.564;2023-08-06T15:41:25;18.40;99.90
4647;DHT22;2336;47.822;7.564;2023-08-06T15:43:52;18.20;99.90
4647;DHT22;2336;47.822;7.564;2023-08-06T15:46:19;18.20;99.90
4647;DHT22;2336;47.822;7.564;2023-08-06T15:48:45;18.10;99.90
4647;DHT22;2336;47.822;7.564;2023-08-06T15:51:13;18.30;99.90
4647;DHT22;2336;47.822;7.564;2023-08-06T15:53:40;18.40;99.90
4647;DHT22;2336;47.822;7.564;2023-08-06T15:56:07;18.60;99.90
4647;DHT22;2336;47.822;7.564;2023-08-06T15:58:33;18.70;99.90
4647;DHT22;2336;47.822;7.564;2023-08-06T16:01:00;18.80;99.90
4647;DHT22;2336;47.822;7.564;2023-08-06T16:03:28;18.80;99.90